createdAt,value
2017-01-21T00:01:03.430Z,72.97
2017-01-21T00:02:13.545Z,72.97
2017-01-21T00:03:24.181Z,72.88
2017-01-21T00:04:33.819Z,72.59
2017-01-21T00:05:43.625Z,72.21
2017-01-21T00:06:53.096Z,72.21
2017-01-21T00:08:02.785Z,72.59
2017-01-21T00:09:12.061Z,72.4
2017-01-21T00:10:21.995Z,72.4
2017-01-21T00:11:31.527Z,72.11
2017-01-21T00:12:40.482Z,72.4
2017-01-21T00:13:49.446Z,72.21
2017-01-21T00:14:58.402Z,72.3
2017-01-21T00:16:07.362Z,72.4
2017-01-21T00:17:16.327Z,72.21
2017-01-21T00:18:25.287Z,72.11
2017-01-21T00:19:34.248Z,72.4
2017-01-21T00:20:43.205Z,72.49
2017-01-21T00:21:52.166Z,72.21
2017-01-21T00:23:01.152Z,72.59
2017-01-21T00:24:10.116Z,72.49
2017-01-21T00:25:19.067Z,72.4
2017-01-21T00:26:28.024Z,72.11
2017-01-21T00:27:36.979Z,72.3
2017-01-21T00:28:45.944Z,72.4
2017-01-21T00:29:54.986Z,72.11
2017-01-21T00:31:03.950Z,72.21
2017-01-21T00:32:12.912Z,72.49
2017-01-21T00:33:21.895Z,72.11
2017-01-21T00:34:30.854Z,72.21
2017-01-21T00:35:39.813Z,72.49
2017-01-21T00:36:48.778Z,72.21
2017-01-21T00:37:57.736Z,72.21
2017-01-21T00:39:06.718Z,71.83
2017-01-21T00:40:15.670Z,71.73
2017-01-21T00:41:24.630Z,71.92
2017-01-21T00:42:33.587Z,71.73
2017-01-21T00:43:42.631Z,72.11
2017-01-21T00:44:51.587Z,72.02
2017-01-21T00:46:00.541Z,71.45
2017-01-21T00:47:09.496Z,71.55
2017-01-21T00:48:18.454Z,71.36
2017-01-21T00:49:27.415Z,71.48
2017-01-21T00:50:36.376Z,71.64
2017-01-21T00:51:45.336Z,71.73
2017-01-21T00:52:54.291Z,71.45
2017-01-21T00:54:03.253Z,71.64
2017-01-21T00:55:12.216Z,71.64
2017-01-21T00:56:21.169Z,71.73
2017-01-21T00:57:30.129Z,71.64
2017-01-21T00:58:39.089Z,71.36
2017-01-21T00:59:48.043Z,71.36
2017-01-21T01:00:57.002Z,71.55
2017-01-21T01:02:05.957Z,71.64
2017-01-21T01:03:14.917Z,71.11
2017-01-21T01:04:23.872Z,71.26
2017-01-21T01:05:32.825Z,71.64
2017-01-21T01:06:41.789Z,71.73
2017-01-21T01:07:50.746Z,71.64
2017-01-21T01:08:59.795Z,71.36
2017-01-21T01:10:08.755Z,71.07
2017-01-21T01:11:17.819Z,71.39
2017-01-21T01:12:26.776Z,71.64
2017-01-21T01:13:35.730Z,71.36
2017-01-21T01:14:44.686Z,71.55
2017-01-21T01:15:53.651Z,71.64
2017-01-21T01:17:02.698Z,71.73
2017-01-21T01:18:11.659Z,71.64
2017-01-21T01:19:20.640Z,71.73
2017-01-21T01:20:31.215Z,71.64
2017-01-21T01:21:40.179Z,71.07
2017-01-21T01:22:49.137Z,71.07
2017-01-21T01:23:58.099Z,71.67
2017-01-21T01:25:07.078Z,71.64
2017-01-21T01:26:16.035Z,71.73
2017-01-21T01:27:25.008Z,71.67
2017-01-21T01:28:34.496Z,71.67
2017-01-21T01:29:44.395Z,71.07
2017-01-21T01:30:54.589Z,71.07
2017-01-21T01:32:04.118Z,71.2
2017-01-21T01:33:13.370Z,71.26
2017-01-21T01:34:23.374Z,71.26
2017-01-21T01:35:33.124Z,71.36
2017-01-21T01:36:43.339Z,71.36
2017-01-21T01:37:52.577Z,71.83
2017-01-21T01:39:02.234Z,71.55
2017-01-21T01:40:11.196Z,71.55
2017-01-21T01:41:20.264Z,71.73
2017-01-21T01:42:29.328Z,71.73
2017-01-21T01:43:38.307Z,72.11
2017-01-21T01:44:47.351Z,71.83
2017-01-21T01:45:56.312Z,71.73
2017-01-21T01:47:05.920Z,72.49
2017-01-21T01:48:17.312Z,72.21
2017-01-21T01:49:27.499Z,71.73
2017-01-21T01:50:38.884Z,71.92
2017-01-21T01:51:47.841Z,71.64
2017-01-21T01:53:00.652Z,71.45
2017-01-21T01:54:12.422Z,71.55
2017-01-21T01:55:22.172Z,71.3
2017-01-21T01:56:33.042Z,71.36
2017-01-21T01:57:44.059Z,71.11
2017-01-21T01:58:56.043Z,71.73
2017-01-21T02:00:07.478Z,71.58
2017-01-21T02:01:20.472Z,71.39
2017-01-21T02:02:34.617Z,71.11
2017-01-21T02:03:45.044Z,71.2
2017-01-21T02:04:57.019Z,70.92
2017-01-21T02:06:10.749Z,70.73
2017-01-21T02:07:25.355Z,71.39
2017-01-21T02:08:36.147Z,70.92
2017-01-21T02:09:47.956Z,71.2
2017-01-21T02:11:03.786Z,70.92
2017-01-21T02:12:16.253Z,71.2
2017-01-21T02:13:32.026Z,70.82
2017-01-21T02:14:44.779Z,71.01
2017-01-21T02:15:59.344Z,70.63
2017-01-21T02:17:14.811Z,70.63
2017-01-21T02:18:27.645Z,70.92
2017-01-21T02:19:42.765Z,70.92
2017-01-21T02:20:55.180Z,70.63
2017-01-21T02:22:09.674Z,70.54
2017-01-21T02:23:20.435Z,70.63
2017-01-21T02:24:32.234Z,70.73
2017-01-21T02:25:41.829Z,71.01
2017-01-21T02:26:50.791Z,70.82
2017-01-21T02:27:59.786Z,70.63
2017-01-21T02:29:08.740Z,70.73
2017-01-21T02:30:17.697Z,71.01
2017-01-21T02:31:26.655Z,70.73
2017-01-21T02:32:35.825Z,70.63
2017-01-21T02:33:44.786Z,70.54
2017-01-21T02:34:53.744Z,70.73
2017-01-21T02:36:02.715Z,70.82
2017-01-21T02:37:11.678Z,70.44
2017-01-21T02:38:20.637Z,70.63
2017-01-21T02:39:29.600Z,70.73
2017-01-21T02:40:38.557Z,70.82
2017-01-21T02:41:47.516Z,70.54
2017-01-21T02:42:56.477Z,70.44
2017-01-21T02:44:05.529Z,70.73
2017-01-21T02:45:14.487Z,70.73
2017-01-21T02:46:23.444Z,70.92
2017-01-21T02:47:32.398Z,71.01
2017-01-21T02:48:41.356Z,71.07
2017-01-21T02:49:50.316Z,71.39
2017-01-21T02:50:59.286Z,71.17
2017-01-21T02:52:08.241Z,71.11
2017-01-21T02:53:17.201Z,71.26
2017-01-21T02:54:26.158Z,71.3
2017-01-21T02:55:35.139Z,71.3
2017-01-21T02:56:44.099Z,71.3
2017-01-21T02:57:53.068Z,71.26
2017-01-21T02:59:02.017Z,71.36
2017-01-21T03:00:10.976Z,71.26
2017-01-21T03:01:19.939Z,71.45
2017-01-21T03:02:28.896Z,71.64
2017-01-21T03:03:37.854Z,72.02
2017-01-21T03:04:46.808Z,71.73
2017-01-21T03:05:55.769Z,71.92
2017-01-21T03:07:04.753Z,72.21
2017-01-21T03:08:13.712Z,72.11
2017-01-21T03:09:22.672Z,72.02
2017-01-21T03:10:31.628Z,72.21
2017-01-21T03:11:40.583Z,72.49
2017-01-21T03:12:49.540Z,72.11
2017-01-21T03:13:58.498Z,72.59
2017-01-21T03:15:07.458Z,72.49
2017-01-21T03:16:16.416Z,72.21
2017-01-21T03:17:25.368Z,72.49
2017-01-21T03:18:34.320Z,72.4
2017-01-21T03:19:43.277Z,72.49
2017-01-21T03:20:52.238Z,72.3
2017-01-21T03:22:01.190Z,72.49
2017-01-21T03:23:10.150Z,72.49
2017-01-21T03:24:19.105Z,72.68
2017-01-21T03:25:28.089Z,72.88
2017-01-21T03:26:37.138Z,72.68
2017-01-21T03:27:46.096Z,73.07
2017-01-21T03:28:55.057Z,72.97
2017-01-21T03:30:04.025Z,72.59
2017-01-21T03:31:13.066Z,72.88
2017-01-21T03:32:22.023Z,72.68
2017-01-21T03:33:30.976Z,72.78
2017-01-21T03:34:39.947Z,72.97
2017-01-21T03:35:48.996Z,72.88
2017-01-21T03:36:57.951Z,73.16
2017-01-21T03:38:06.908Z,72.59
2017-01-21T03:39:15.860Z,72.88
2017-01-21T03:40:24.842Z,72.88
2017-01-21T03:41:33.801Z,72.97
2017-01-21T03:42:42.842Z,72.21
2017-01-21T03:43:51.800Z,72.59
2017-01-21T03:45:00.759Z,72.97
2017-01-21T03:46:09.718Z,72.97
2017-01-21T03:47:18.678Z,72.59
2017-01-21T03:48:27.630Z,72.97
2017-01-21T03:49:36.586Z,72.97
2017-01-21T03:50:45.546Z,73.44
2017-01-21T03:51:54.909Z,73.63
2017-01-21T03:53:03.868Z,73.07
2017-01-21T03:54:12.823Z,73.35
2017-01-21T03:55:21.783Z,73.63
2017-01-21T03:56:30.826Z,73.54
2017-01-21T03:57:39.780Z,73.54
2017-01-21T03:58:48.772Z,73.25
2017-01-21T03:59:57.729Z,73.44
2017-01-21T04:01:06.690Z,73.25
2017-01-21T04:02:15.648Z,73.54
2017-01-21T04:03:24.608Z,73.54
2017-01-21T04:04:33.562Z,73.25
2017-01-21T04:05:42.530Z,73.25
2017-01-21T04:06:51.495Z,73.44
2017-01-21T04:08:00.457Z,73.44
2017-01-21T04:09:09.425Z,73.44
2017-01-21T04:10:18.381Z,73.54
2017-01-21T04:11:27.424Z,73.44
2017-01-21T04:12:36.384Z,73.44
2017-01-21T04:13:45.344Z,73.72
2017-01-21T04:14:54.299Z,73.44
2017-01-21T04:16:03.251Z,73.44
2017-01-21T04:17:12.208Z,73.72
2017-01-21T04:18:21.164Z,73.54
2017-01-21T04:19:30.120Z,73.35
2017-01-21T04:20:39.079Z,73.35
2017-01-21T04:21:48.030Z,73.54
2017-01-21T04:22:56.991Z,73.35
2017-01-21T04:24:05.950Z,73.54
2017-01-21T04:25:14.906Z,73.35
2017-01-21T04:26:23.866Z,72.97
2017-01-21T04:27:32.821Z,73.35
2017-01-21T04:28:41.781Z,73.44
2017-01-21T04:29:50.826Z,73.35
2017-01-21T04:30:59.780Z,73.54
2017-01-21T04:32:08.740Z,73.54
2017-01-21T04:33:17.725Z,73.35
2017-01-21T04:34:26.767Z,73.35
2017-01-21T04:35:35.727Z,73.16
2017-01-21T04:36:44.680Z,73.16
2017-01-21T04:37:53.631Z,73.44
2017-01-21T04:39:02.588Z,73.35
2017-01-21T04:40:11.549Z,73.35
2017-01-21T04:41:20.509Z,73.54
2017-01-21T04:42:29.464Z,73.35
2017-01-21T04:43:38.423Z,73.07
2017-01-21T04:44:47.401Z,72.97
2017-01-21T04:45:56.357Z,73.54
2017-01-21T04:47:05.315Z,73.35
2017-01-21T04:48:14.276Z,73.35
2017-01-21T04:49:23.332Z,73.54
2017-01-21T04:50:32.290Z,73.63
2017-01-21T04:51:41.247Z,73.72
2017-01-21T04:52:50.209Z,73.25
2017-01-21T04:53:59.168Z,73.25
2017-01-21T04:55:08.128Z,73.63
2017-01-21T04:56:17.083Z,73.44
2017-01-21T04:57:26.040Z,73.35
2017-01-21T04:58:35.000Z,73.44
2017-01-21T04:59:43.966Z,73.25
2017-01-21T05:00:52.926Z,73.35
2017-01-21T05:02:01.963Z,73.92
2017-01-21T05:03:11.007Z,73.82
2017-01-21T05:04:19.969Z,73.72
2017-01-21T05:05:28.948Z,73.72
2017-01-21T05:06:37.910Z,73.25
2017-01-21T05:07:46.914Z,73.07
2017-01-21T05:08:55.872Z,73.35
2017-01-21T05:10:04.830Z,73.25
2017-01-21T05:11:13.783Z,73.63
2017-01-21T05:12:22.744Z,73.35
2017-01-21T05:13:31.704Z,73.25
2017-01-21T05:14:40.662Z,73.35
2017-01-21T05:15:49.707Z,73.16
2017-01-21T05:16:58.665Z,72.97
2017-01-21T05:18:07.625Z,73.16
2017-01-21T05:19:16.578Z,73.16
2017-01-21T05:20:25.537Z,72.81
2017-01-21T05:21:34.500Z,73
2017-01-21T05:22:43.458Z,73.25
2017-01-21T05:23:52.416Z,72.97
2017-01-21T05:25:01.379Z,72.97
2017-01-21T05:26:10.336Z,72.97
2017-01-21T05:27:19.386Z,73.07
2017-01-21T05:28:28.378Z,72.78
2017-01-21T05:29:37.339Z,73.16
2017-01-21T05:30:46.301Z,73.16
2017-01-21T05:31:55.261Z,73.07
2017-01-21T05:33:04.224Z,73.35
2017-01-21T05:34:13.180Z,73.25
2017-01-21T05:35:22.145Z,73.35
2017-01-21T05:36:31.117Z,73.44
2017-01-21T05:37:40.077Z,73.25
2017-01-21T05:38:49.122Z,73.16
2017-01-21T05:39:58.080Z,73.16
2017-01-21T05:41:07.038Z,73.07
2017-01-21T05:42:15.998Z,73.07
2017-01-21T05:43:24.957Z,72.97
2017-01-21T05:44:33.917Z,72.97
2017-01-21T05:45:42.874Z,73.16
2017-01-21T05:46:51.839Z,73.16
2017-01-21T05:48:00.801Z,73
2017-01-21T05:49:09.763Z,73.07
2017-01-21T05:50:18.718Z,73.35
2017-01-21T05:51:27.686Z,73.44
2017-01-21T05:52:36.639Z,73.54
2017-01-21T05:53:45.600Z,73.54
2017-01-21T05:54:54.556Z,73.63
2017-01-21T05:56:03.519Z,73.54
2017-01-21T05:57:12.877Z,73.72
2017-01-21T05:58:21.923Z,73.63
2017-01-21T05:59:30.883Z,73.63
2017-01-21T06:00:39.840Z,73.44
2017-01-21T06:01:48.797Z,73.54
2017-01-21T06:02:57.758Z,73.25
2017-01-21T06:04:06.719Z,73.57
2017-01-21T06:05:15.767Z,73.25
2017-01-21T06:06:24.726Z,73.54
2017-01-21T06:07:33.680Z,73.44
2017-01-21T06:08:42.640Z,73.54
2017-01-21T06:09:51.596Z,73.54
2017-01-21T06:11:00.552Z,73.72
2017-01-21T06:12:09.510Z,73.35
2017-01-21T06:13:18.464Z,73.44
2017-01-21T06:14:27.445Z,73.35
2017-01-21T06:15:36.399Z,73.35
2017-01-21T06:16:45.356Z,73.63
2017-01-21T06:17:54.313Z,73.16
2017-01-21T06:19:03.381Z,73.07
2017-01-21T06:20:12.337Z,73.25
2017-01-21T06:21:21.380Z,73.72
2017-01-21T06:22:30.340Z,73.44
2017-01-21T06:23:39.300Z,73.54
2017-01-21T06:24:48.253Z,73.35
2017-01-21T06:25:57.211Z,73.35
2017-01-21T06:27:06.256Z,73.35
2017-01-21T06:28:15.212Z,73.54
2017-01-21T06:29:24.174Z,73.63
2017-01-21T06:30:33.142Z,73.25
2017-01-21T06:31:42.103Z,73.54
2017-01-21T06:32:51.058Z,73.54
2017-01-21T06:34:00.012Z,73.54
2017-01-21T06:35:08.968Z,73.25
2017-01-21T06:36:17.933Z,73.35
2017-01-21T06:37:26.891Z,73.72
2017-01-21T06:38:35.848Z,73.63
2017-01-21T06:39:44.898Z,74.11
2017-01-21T06:40:53.854Z,74.01
2017-01-21T06:42:02.819Z,74.3
2017-01-21T06:43:11.772Z,74.3
2017-01-21T06:44:20.749Z,74.3
2017-01-21T06:45:29.703Z,74.2
2017-01-21T06:46:38.659Z,73.25
2017-01-21T06:47:47.617Z,74.11
2017-01-21T06:48:56.574Z,74.01
2017-01-21T06:50:05.524Z,73.54
2017-01-21T06:51:14.478Z,74.49
2017-01-21T06:52:23.435Z,74.3
2017-01-21T06:53:32.387Z,74.49
2017-01-21T06:54:41.344Z,74.3
2017-01-21T06:55:50.307Z,74.39
2017-01-21T06:56:59.262Z,74.39
2017-01-21T06:58:08.224Z,74.58
2017-01-21T06:59:17.189Z,74.58
2017-01-21T07:00:26.145Z,74.39
2017-01-21T07:01:35.108Z,74.39
2017-01-21T07:02:44.062Z,74.49
2017-01-21T07:03:53.013Z,74.49
2017-01-21T07:05:01.975Z,74.87
2017-01-21T07:06:10.927Z,74.68
2017-01-21T07:07:19.884Z,75.05
2017-01-21T07:08:28.840Z,75.05
2017-01-21T07:09:37.884Z,75.34
2017-01-21T07:10:46.847Z,74.58
2017-01-21T07:11:55.805Z,74.68
2017-01-21T07:13:04.767Z,74.87
2017-01-21T07:14:13.720Z,74.77
2017-01-21T07:15:22.678Z,74.39
2017-01-21T07:16:31.632Z,75.24
2017-01-21T07:17:40.589Z,75.24
2017-01-21T07:18:49.550Z,75.62
2017-01-21T07:19:58.509Z,75.34
2017-01-21T07:21:07.464Z,75.43
2017-01-21T07:22:16.416Z,75.34
2017-01-21T07:23:25.378Z,74.68
2017-01-21T07:24:34.332Z,75.34
2017-01-21T07:25:43.296Z,74.58
2017-01-21T07:26:52.249Z,74.87
2017-01-21T07:28:01.230Z,74.96
2017-01-21T07:29:10.192Z,74.87
2017-01-21T07:30:19.556Z,74.87
2017-01-21T07:31:28.514Z,74.68
2017-01-21T07:32:37.474Z,74.68
2017-01-21T07:33:46.425Z,74.87
2017-01-21T07:34:55.397Z,74.77
2017-01-21T07:36:04.354Z,74.96
2017-01-21T07:37:13.315Z,74.96
2017-01-21T07:38:22.270Z,74.77
2017-01-21T07:39:31.223Z,74.68
2017-01-21T07:40:40.188Z,74.39
2017-01-21T07:41:49.150Z,74.49
2017-01-21T07:42:58.128Z,74.68
2017-01-21T07:44:07.085Z,74.39
2017-01-21T07:45:16.050Z,74.3
2017-01-21T07:46:25.011Z,74.01
2017-01-21T07:47:33.971Z,74.33
2017-01-21T07:48:42.935Z,74.43
2017-01-21T07:49:51.887Z,74.62
2017-01-21T07:51:00.849Z,74.43
2017-01-21T07:52:09.814Z,74.52
2017-01-21T07:53:18.774Z,74.52
2017-01-21T07:54:27.732Z,74.24
2017-01-21T07:55:36.689Z,74.24
2017-01-21T07:56:45.645Z,74.24
2017-01-21T07:57:54.690Z,74.05
2017-01-21T07:59:03.649Z,73.67
2017-01-21T08:00:12.609Z,73.96
2017-01-21T08:01:21.660Z,73.96
2017-01-21T08:02:30.618Z,73.96
2017-01-21T08:03:39.578Z,73.67
2017-01-21T08:04:48.536Z,73.48
2017-01-21T08:05:57.494Z,73.38
2017-01-21T08:07:06.466Z,73.57
2017-01-21T08:08:15.507Z,73.57
2017-01-21T08:09:24.475Z,73.29
2017-01-21T08:10:33.432Z,73.76
2017-01-21T08:11:42.417Z,73.57
2017-01-21T08:12:51.376Z,74.05
2017-01-21T08:14:00.333Z,73.76
2017-01-21T08:15:09.296Z,74.05
2017-01-21T08:16:18.255Z,74.05
2017-01-21T08:17:27.328Z,73.57
2017-01-21T08:18:36.285Z,73.76
2017-01-21T08:19:45.243Z,73.38
2017-01-21T08:20:54.204Z,73.48
2017-01-21T08:22:03.162Z,73.29
2017-01-21T08:23:12.115Z,73.76
2017-01-21T08:24:21.080Z,73.67
2017-01-21T08:25:30.034Z,73.67
2017-01-21T08:26:39.026Z,73.76
2017-01-21T08:27:47.990Z,73.86
2017-01-21T08:28:56.948Z,73.96
2017-01-21T08:30:05.905Z,74.15
2017-01-21T08:31:14.866Z,73.96
2017-01-21T08:32:23.823Z,73.76
2017-01-21T08:33:32.782Z,74.05
2017-01-21T08:34:41.741Z,73.86
2017-01-21T08:35:50.701Z,73.86
2017-01-21T08:36:59.665Z,73.96
2017-01-21T08:38:08.620Z,73.96
2017-01-21T08:39:17.580Z,74.05
2017-01-21T08:40:26.560Z,73.38
2017-01-21T08:41:35.531Z,73.48
2017-01-21T08:42:44.485Z,73.57
2017-01-21T08:43:53.443Z,73.48
2017-01-21T08:45:02.400Z,73.67
2017-01-21T08:46:11.359Z,73.38
2017-01-21T08:47:20.315Z,73.48
2017-01-21T08:48:29.278Z,73.38
2017-01-21T08:49:38.249Z,73.76
2017-01-21T08:50:47.210Z,73.38
2017-01-21T08:51:56.165Z,73.57
2017-01-21T08:53:05.123Z,73.1
2017-01-21T08:54:14.084Z,73.57
2017-01-21T08:55:23.135Z,73.67
2017-01-21T08:56:32.087Z,73.29
2017-01-21T08:57:41.043Z,73.57
2017-01-21T08:58:50.005Z,73.67
2017-01-21T08:59:59.046Z,73.48
2017-01-21T09:01:08.000Z,73.48
2017-01-21T09:02:16.954Z,73.29
2017-01-21T09:03:25.942Z,73.38
2017-01-21T09:04:34.905Z,73.19
2017-01-21T09:05:43.860Z,73.57
2017-01-21T09:06:52.911Z,73.57
2017-01-21T09:08:01.867Z,73.48
2017-01-21T09:09:10.832Z,73.57
2017-01-21T09:10:19.814Z,73.57
2017-01-21T09:11:28.884Z,73
2017-01-21T09:12:37.866Z,73
2017-01-21T09:13:46.828Z,73.1
2017-01-21T09:14:55.790Z,73
2017-01-21T09:16:04.744Z,73
2017-01-21T09:17:13.792Z,73.1
2017-01-21T09:18:22.745Z,73.1
2017-01-21T09:19:31.708Z,72.91
2017-01-21T09:20:40.669Z,73.1
2017-01-21T09:21:49.636Z,73.1
2017-01-21T09:22:58.597Z,73.1
2017-01-21T09:24:07.552Z,73
2017-01-21T09:25:16.511Z,72.81
2017-01-21T09:26:25.470Z,73.1
2017-01-21T09:27:34.432Z,72.72
2017-01-21T09:28:43.388Z,72.91
2017-01-21T09:29:52.350Z,73
2017-01-21T09:31:01.402Z,72.85
2017-01-21T09:32:10.359Z,72.44
2017-01-21T09:33:19.322Z,72.53
2017-01-21T09:34:28.284Z,72.38
2017-01-21T09:35:37.246Z,72.38
2017-01-21T09:36:46.198Z,72.28
2017-01-21T09:37:55.156Z,72.34
2017-01-21T09:39:04.822Z,72
2017-01-21T09:40:13.782Z,71.9
2017-01-21T09:41:22.761Z,72
2017-01-21T09:42:31.722Z,71.9
2017-01-21T09:43:40.688Z,72
2017-01-21T09:44:49.650Z,71.62
2017-01-21T09:45:58.605Z,71.62
2017-01-21T09:47:07.556Z,71.86
2017-01-21T09:48:16.514Z,71.9
2017-01-21T09:49:25.472Z,71.62
2017-01-21T09:50:34.424Z,71.48
2017-01-21T09:51:43.380Z,71.9
2017-01-21T09:52:52.332Z,72.19
2017-01-21T09:54:01.293Z,72.19
2017-01-21T09:55:10.253Z,71.81
2017-01-21T09:56:19.209Z,71.43
2017-01-21T09:57:28.167Z,71.81
2017-01-21T09:58:37.127Z,71.81
2017-01-21T09:59:46.111Z,71.71
2017-01-21T10:00:55.074Z,71.14
2017-01-21T10:02:04.059Z,71.33
2017-01-21T10:03:13.019Z,71.14
2017-01-21T10:04:21.975Z,71.23
2017-01-21T10:05:31.153Z,71.33
2017-01-21T10:06:41.993Z,71.14
2017-01-21T10:07:51.909Z,71.23
2017-01-21T10:09:00.869Z,70.57
2017-01-21T10:10:09.827Z,70.95
2017-01-21T10:11:18.781Z,70.57
2017-01-21T10:12:27.740Z,71.14
2017-01-21T10:13:36.694Z,70.67
2017-01-21T10:14:45.656Z,70.86
2017-01-21T10:15:54.710Z,70.48
2017-01-21T10:17:03.676Z,70.57
2017-01-21T10:18:12.630Z,70.76
2017-01-21T10:19:21.585Z,70.86
2017-01-21T10:20:30.544Z,70.29
2017-01-21T10:21:39.505Z,70.29
2017-01-21T10:22:48.467Z,70.38
2017-01-21T10:23:57.430Z,70.48
2017-01-21T10:25:06.395Z,70.67
2017-01-21T10:26:15.440Z,70.1
2017-01-21T10:27:24.399Z,70
2017-01-21T10:28:33.356Z,70.29
2017-01-21T10:29:42.316Z,70
2017-01-21T10:30:51.276Z,70.19
2017-01-21T10:32:00.714Z,69.71
2017-01-21T10:33:09.976Z,69.71
2017-01-21T10:34:20.028Z,69.81
2017-01-21T10:35:31.650Z,70
2017-01-21T10:36:41.615Z,70.1
2017-01-21T10:37:51.436Z,69.81
2017-01-21T10:39:01.345Z,69.91
2017-01-21T10:40:10.632Z,70
2017-01-21T10:41:20.576Z,70.1
2017-01-21T10:42:30.722Z,70.1
2017-01-21T10:43:40.659Z,70
2017-01-21T10:44:50.874Z,69.81
2017-01-21T10:46:01.151Z,69.91
2017-01-21T10:47:11.145Z,69.53
2017-01-21T10:48:21.093Z,69.34
2017-01-21T10:49:31.462Z,69.71
2017-01-21T10:50:40.426Z,69.43
2017-01-21T10:51:50.006Z,69.62
2017-01-21T10:53:00.072Z,69.53
2017-01-21T10:54:09.588Z,69.62
2017-01-21T10:55:19.183Z,69.53
2017-01-21T10:56:29.180Z,69.53
2017-01-21T10:57:39.098Z,69.43
2017-01-21T10:58:49.759Z,69.05
2017-01-21T11:00:00.272Z,68.96
2017-01-21T11:01:10.634Z,68.96
2017-01-21T11:02:21.167Z,68.96
2017-01-21T11:03:30.955Z,69.15
2017-01-21T11:04:40.658Z,69.15
2017-01-21T11:05:50.348Z,69.24
2017-01-21T11:07:00.364Z,69.24
2017-01-21T11:08:10.232Z,69.24
2017-01-21T11:09:19.372Z,69.05
2017-01-21T11:10:28.580Z,68.58
2017-01-21T11:11:38.003Z,68.77
2017-01-21T11:12:47.566Z,69.15
2017-01-21T11:13:56.673Z,69.05
2017-01-21T11:15:06.320Z,69.05
2017-01-21T11:16:15.353Z,69.34
2017-01-21T11:17:25.168Z,69.15
2017-01-21T11:18:35.209Z,69.05
2017-01-21T11:19:44.875Z,69.05
2017-01-21T11:20:54.884Z,68.86
2017-01-21T11:22:04.732Z,68.86
2017-01-21T11:23:14.721Z,69.15
2017-01-21T11:24:24.859Z,68.67
2017-01-21T11:25:35.333Z,69.15
2017-01-21T11:26:45.727Z,68.86
2017-01-21T11:27:56.098Z,68.67
2017-01-21T11:29:06.125Z,68.48
2017-01-21T11:30:15.629Z,68.67
2017-01-21T11:31:26.103Z,68.67
2017-01-21T11:32:36.071Z,68.48
2017-01-21T11:33:45.841Z,68.29
2017-01-21T11:34:54.922Z,68.96
2017-01-21T11:36:03.967Z,68.77
2017-01-21T11:37:13.115Z,68.48
2017-01-21T11:38:22.346Z,68.58
2017-01-21T11:39:32.415Z,68.67
2017-01-21T11:40:42.960Z,68.67
2017-01-21T11:41:52.457Z,68.58
2017-01-21T11:43:01.675Z,68.86
2017-01-21T11:44:11.482Z,68.86
2017-01-21T11:45:21.098Z,68.58
2017-01-21T11:46:30.573Z,68.86
2017-01-21T11:47:39.886Z,68.77
2017-01-21T11:48:49.186Z,69.15
2017-01-21T11:49:58.148Z,69.05
2017-01-21T11:51:07.830Z,68.96
2017-01-21T11:52:17.546Z,69.15
2017-01-21T11:53:27.376Z,68.96
2017-01-21T11:54:37.424Z,69.24
2017-01-21T11:55:52.498Z,69.24
2017-01-21T11:57:13.616Z,69.11
2017-01-21T11:58:24.778Z,69.02
2017-01-21T11:59:33.742Z,69.21
2017-01-21T12:00:43.699Z,69.02
2017-01-21T12:01:53.082Z,69.02
2017-01-21T12:03:02.037Z,69.49
2017-01-21T12:04:11.499Z,69.4
2017-01-21T12:05:20.502Z,69.68
2017-01-21T12:06:29.910Z,70.06
2017-01-21T12:07:38.970Z,69.4
2017-01-21T12:08:47.926Z,69.49
2017-01-21T12:09:57.700Z,69.59
2017-01-21T12:11:06.805Z,69.59
2017-01-21T12:12:15.943Z,69.49
2017-01-21T12:13:25.551Z,69.49
2017-01-21T12:14:34.509Z,69.49
2017-01-21T12:15:44.280Z,69.49
2017-01-21T12:16:53.536Z,69.68
2017-01-21T12:18:03.580Z,69.05
2017-01-21T12:19:13.007Z,69.11
2017-01-21T12:20:22.951Z,69.02
2017-01-21T12:21:32.792Z,69.11
2017-01-21T12:22:42.342Z,69.21
2017-01-21T12:23:52.407Z,69.02
2017-01-21T12:25:02.653Z,68.96
2017-01-21T12:26:13.136Z,69.21
2017-01-21T12:27:22.920Z,69.24
2017-01-21T12:28:32.760Z,69.15
2017-01-21T12:29:42.394Z,69.15
2017-01-21T12:30:52.467Z,68.96
2017-01-21T12:32:02.633Z,68.96
2017-01-21T12:33:12.898Z,68.48
2017-01-21T12:34:23.477Z,69.15
2017-01-21T12:35:35.590Z,68.58
2017-01-21T12:36:53.791Z,68.96
2017-01-21T12:38:03.059Z,68.58
2017-01-21T12:39:12.318Z,68.19
2017-01-21T12:40:21.274Z,68.39
2017-01-21T12:41:30.230Z,68.29
2017-01-21T12:42:39.271Z,68.48
2017-01-21T12:43:48.231Z,68.19
2017-01-21T12:44:57.195Z,68.39
2017-01-21T12:46:06.155Z,68.48
2017-01-21T12:47:15.109Z,67.91
2017-01-21T12:48:24.068Z,68.01
2017-01-21T12:49:33.039Z,68.29
2017-01-21T12:50:41.999Z,67.72
2017-01-21T12:51:50.952Z,67.82
2017-01-21T12:52:59.920Z,67.15
2017-01-21T12:54:08.876Z,67.15
2017-01-21T12:55:17.923Z,67.63
2017-01-21T12:56:27.691Z,67.53
2017-01-21T12:57:37.349Z,67.63
2017-01-21T12:58:47.330Z,67.63
2017-01-21T12:59:56.615Z,67.34
2017-01-21T13:01:06.260Z,67.15
2017-01-21T13:02:15.223Z,67.15
2017-01-21T13:03:24.204Z,66.77
2017-01-21T13:04:33.185Z,66.96
2017-01-21T13:05:42.277Z,66.87
2017-01-21T13:06:51.921Z,66.87
2017-01-21T13:08:01.516Z,66.77
2017-01-21T13:09:11.142Z,66.58
2017-01-21T13:10:20.741Z,66.96
2017-01-21T13:11:30.401Z,66.87
2017-01-21T13:12:40.672Z,66.96
2017-01-21T13:13:51.089Z,66.77
2017-01-21T13:15:01.082Z,66.3
2017-01-21T13:16:11.314Z,66.58
2017-01-21T13:17:22.479Z,66.67
2017-01-21T13:18:33.387Z,66.49
2017-01-21T13:19:43.675Z,66.33
2017-01-21T13:20:53.599Z,66.61
2017-01-21T13:22:03.809Z,66.39
2017-01-21T13:23:16.434Z,66.39
2017-01-21T13:24:29.362Z,66.3
2017-01-21T13:25:38.339Z,66.14
2017-01-21T13:26:47.305Z,66.24
2017-01-21T13:27:56.337Z,66.33
2017-01-21T13:29:05.300Z,66.14
2017-01-21T13:30:14.264Z,66.42
2017-01-21T13:31:23.413Z,66.61
2017-01-21T13:32:32.596Z,66.61
2017-01-21T13:33:44.500Z,66.33
2017-01-21T13:34:55.761Z,66.33
2017-01-21T13:36:08.474Z,66.33
2017-01-21T13:37:17.953Z,66.14
2017-01-21T13:38:28.363Z,66.24
2017-01-21T13:39:37.942Z,66.33
2017-01-21T13:40:48.883Z,66.14
2017-01-21T13:41:59.246Z,66.33
2017-01-21T13:43:11.204Z,66.14
2017-01-21T13:44:21.742Z,65.86
2017-01-21T13:45:30.796Z,65.38
2017-01-21T13:46:43.081Z,65.67
2017-01-21T13:47:55.726Z,65.57
2017-01-21T13:49:04.696Z,65.86
2017-01-21T13:50:13.754Z,65.95
2017-01-21T13:51:22.821Z,65.86
2017-01-21T13:52:31.868Z,65.76
2017-01-21T13:53:41.055Z,65.86
2017-01-21T13:54:50.100Z,65.47
2017-01-21T13:55:59.101Z,65.19
2017-01-21T13:57:08.146Z,65.09
2017-01-21T13:58:17.412Z,65.38
2017-01-21T13:59:27.565Z,65.28
2017-01-21T14:00:36.759Z,65.38
2017-01-21T14:01:47.230Z,65.38
2017-01-21T14:02:57.874Z,65.38
2017-01-21T14:04:07.776Z,65.38
2017-01-21T14:05:16.779Z,65.38
2017-01-21T14:06:26.763Z,65.38
2017-01-21T14:07:36.094Z,65.09
2017-01-21T14:08:46.627Z,65.38
2017-01-21T14:09:56.622Z,65.47
2017-01-21T14:11:05.583Z,65.47
2017-01-21T14:12:14.549Z,65.19
2017-01-21T14:13:24.405Z,64.9
2017-01-21T14:14:33.736Z,65.19
2017-01-21T14:15:43.258Z,65.38
2017-01-21T14:16:52.218Z,65.19
2017-01-21T14:18:01.180Z,65.67
2017-01-21T14:19:10.152Z,65.76
2017-01-21T14:20:19.106Z,65.76
2017-01-21T14:21:28.071Z,66.05
2017-01-21T14:22:37.029Z,66.05
2017-01-21T14:23:45.985Z,65.76
2017-01-21T14:24:54.945Z,65.76
2017-01-21T14:26:03.915Z,65.76
2017-01-21T14:27:12.867Z,65.67
2017-01-21T14:28:21.821Z,65.67
2017-01-21T14:29:30.783Z,65.38
2017-01-21T14:30:39.748Z,65.28
2017-01-21T14:31:48.741Z,65.38
2017-01-21T14:32:57.690Z,65.28
2017-01-21T14:34:06.647Z,65.28
2017-01-21T14:35:15.602Z,65.47
2017-01-21T14:36:24.561Z,65.09
2017-01-21T14:37:33.523Z,65
2017-01-21T14:38:42.485Z,65.19
2017-01-21T14:39:51.536Z,65.38
2017-01-21T14:41:00.960Z,65.47
2017-01-21T14:42:10.276Z,65.19
2017-01-21T14:43:19.587Z,65.09
2017-01-21T14:44:30.655Z,65.28
2017-01-21T14:45:42.131Z,65.38
2017-01-21T14:46:53.290Z,65.47
2017-01-21T14:48:04.353Z,65.19
2017-01-21T14:49:15.093Z,65.38
2017-01-21T14:50:25.657Z,65.28
2017-01-21T14:51:36.549Z,65.38
2017-01-21T14:52:46.709Z,65.76
2017-01-21T14:53:57.795Z,65.76
2017-01-21T14:55:08.148Z,65.47
2017-01-21T14:56:19.747Z,65.57
2017-01-21T14:57:30.701Z,65.47